Pagina principale
METAR-TAF:

METAR-TAF

Aeroporti :

Aeroporto di Padova

Padova, Italia

latitudine: 45-23-45N, longitudine: 11-50-53E, altezza: 13 m

Osservazione

Il bollettino è stato emesso 3 ore e 57 minuti fa, alle 07:00 UTC
Vento 5 kt da nord, variando fra nord-ovest e nord/nord-est
Temperature 5°C
Umidità 75%
Pressione 1016 hPa
Visibilità: 9000 m

METAR: LIPU 090700Z 35005KT 310V030 9000 NSC 05/01 Q1016

Ora: 11:57 (10:57 UTC)


TAF: mancante

Osservazioni e previsioni meteorologiche di più di 4000 aeroporti (messaggi METAR e TAF).

Le stazioni disponibili sono rappresentate dai dischi gialli e rossi sulla carta.

Puntare il mouse per vedere il nome della stazione.

Clicca sopra per visualizzare le osservazioni e previsioni meteorologiche.

Per cambiare la mappa : fare clic sui pulsanti verdi con una croce nera per ingrandire, il pulsante verde con un trattino per diminuire, o sulla freccia verde per le mappe adiacenti.


METAR-TAF: